Time;durP1;ratioP1;P1;durP2;ratioP2;P2;SDS_P1;SDS_P2;PMS_P1;PMS_P2;Temp;Humidity;BMP_temperature;BMP_pressure;BME280_temperature;BME280_humidity;BME280_pressure;Samples;Min_cycle;Max_cycle;Signal;HPM_P1;HPM_P2
2021/01/15 00:00:20;;;;;;;3.47;2.60;;;0.90;99.90;;;;;;5071475;28;20201;-84
2021/01/15 00:02:47;;;;;;;4.95;2.45;;;0.90;99.90;;;;;;5073316;28;20205;-88
2021/01/15 00:05:13;;;;;;;3.33;2.35;;;1.00;99.90;;;;;;5073282;28;20208;-86
2021/01/15 00:07:40;;;;;;;4.93;2.70;;;0.90;99.90;;;;;;5073680;28;20768;-91
2021/01/15 00:10:07;;;;;;;3.95;2.25;;;0.90;99.90;;;;;;5073668;28;20301;-87
2021/01/15 00:12:38;;;;;;;2.90;2.10;;;0.80;99.90;;;;;;5074363;28;20265;-88
2021/01/15 00:15:06;;;;;;;3.40;2.30;;;0.80;99.90;;;;;;5038320;28;20301;-87
2021/01/15 00:17:35;;;;;;;3.00;1.85;;;0.80;99.90;;;;;;5072231;28;20241;-88
2021/01/15 00:20:02;;;;;;;2.08;1.92;;;0.90;99.90;;;;;;5073306;28;20233;-90
2021/01/15 00:22:28;;;;;;;4.85;2.20;;;0.90;99.90;;;;;;5073254;28;20293;-87
2021/01/15 00:24:54;;;;;;;2.97;2.67;;;0.90;99.90;;;;;;5072234;28;20293;-87
2021/01/15 00:27:21;;;;;;;4.53;2.65;;;1.00;99.90;;;;;;5072842;28;20336;-90
2021/01/15 00:29:48;;;;;;;5.10;2.13;;;1.00;99.90;;;;;;5075385;28;20296;-87
2021/01/15 00:32:15;;;;;;;4.43;1.80;;;0.90;99.90;;;;;;5075643;28;20630;-88
2021/01/15 00:34:42;;;;;;;2.60;2.40;;;0.90;99.90;;;;;;5076852;28;20296;-87
2021/01/15 00:37:08;;;;;;;4.05;2.00;;;0.90;99.90;;;;;;5076633;28;20296;-88
2021/01/15 00:39:35;;;;;;;3.78;2.50;;;0.90;99.90;;;;;;5076856;28;20732;-84
2021/01/15 00:42:01;;;;;;;2.40;1.85;;;0.80;99.90;;;;;;5076982;28;20206;-89
2021/01/15 00:44:28;;;;;;;2.65;1.83;;;0.80;99.90;;;;;;5077241;28;20240;-87
2021/01/15 00:46:55;;;;;;;3.90;2.17;;;0.80;99.90;;;;;;5075362;28;20320;-87
2021/01/15 00:49:21;;;;;;;3.45;2.70;;;0.80;99.90;;;;;;5076584;28;20212;-84
2021/01/15 00:51:50;;;;;;;5.00;2.28;;;0.80;99.90;;;;;;5077255;28;20284;-86
2021/01/15 00:54:17;;;;;;;2.25;2.05;;;0.80;99.90;;;;;;5076371;28;20209;-85
2021/01/15 00:56:43;;;;;;;2.33;1.95;;;0.80;99.90;;;;;;5076525;28;20300;-89
2021/01/15 00:59:10;;;;;;;4.32;2.50;;;0.80;99.90;;;;;;5075932;28;20293;-87
2021/01/15 01:01:37;;;;;;;2.20;2.00;;;0.70;99.90;;;;;;5075076;28;20684;-87
2021/01/15 01:04:06;;;;;;;9.32;3.80;;;0.70;99.90;;;;;;5074535;28;20237;-89
2021/01/15 01:06:33;;;;;;;6.57;4.15;;;0.70;99.90;;;;;;5076408;28;20328;-85
2021/01/15 01:09:02;;;;;;;8.30;5.35;;;0.70;99.90;;;;;;5076167;28;20213;-87
2021/01/15 01:11:30;;;;;;;8.27;5.57;;;0.70;99.90;;;;;;5075816;28;20206;-86
2021/01/15 01:13:58;;;;;;;6.28;4.38;;;0.80;99.90;;;;;;5076231;28;20233;-87
2021/01/15 01:16:25;;;;;;;8.95;6.43;;;0.70;99.90;;;;;;5074654;28;20205;-88
2021/01/15 01:18:52;;;;;;;4.68;3.10;;;0.70;99.90;;;;;;5076478;28;20198;-87
2021/01/15 01:21:21;;;;;;;2.17;1.38;;;0.70;99.90;;;;;;5076516;28;20682;-86
2021/01/15 01:23:47;;;;;;;2.33;2.22;;;0.60;99.90;;;;;;5076872;28;20229;-85
2021/01/15 01:26:15;;;;;;;3.17;2.22;;;0.60;99.90;;;;;;5077510;28;20297;-89
2021/01/15 01:28:42;;;;;;;5.65;2.75;;;0.50;99.90;;;;;;5081862;28;20791;-85
2021/01/15 01:31:10;;;;;;;2.85;2.10;;;0.50;99.90;;;;;;5083909;28;20210;-88
2021/01/15 01:33:36;;;;;;;3.35;2.55;;;0.50;99.90;;;;;;5094026;28;20208;-90
2021/01/15 01:36:03;;;;;;;3.05;2.15;;;0.50;99.90;;;;;;5101519;28;20193;-90
2021/01/15 01:38:30;;;;;;;1.80;1.70;;;0.40;99.90;;;;;;5100707;28;20221;-90
2021/01/15 01:40:57;;;;;;;1.55;1.45;;;0.40;99.90;;;;;;5097456;28;20201;-90
2021/01/15 01:43:24;;;;;;;2.05;1.95;;;0.50;99.90;;;;;;5098294;28;20248;-89
2021/01/15 01:45:50;;;;;;;2.33;2.05;;;0.50;99.90;;;;;;5095904;28;20264;-88
2021/01/15 01:48:20;;;;;;;4.15;2.50;;;0.40;99.90;;;;;;5095834;28;20232;-89
2021/01/15 01:50:47;;;;;;;2.65;2.22;;;0.40;99.90;;;;;;5096459;28;20292;-91
2021/01/15 01:53:18;;;;;;;2.55;1.55;;;0.30;99.90;;;;;;5096467;28;20223;-92
2021/01/15 01:55:48;;;;;;;2.70;2.00;;;0.30;99.90;;;;;;5099181;28;20272;-89
2021/01/15 01:58:16;;;;;;;1.88;1.77;;;0.30;99.90;;;;;;5116667;28;20181;-89
2021/01/15 02:00:47;;;;;;;1.88;1.75;;;0.30;99.90;;;;;;5106906;28;20205;-88
2021/01/15 02:03:16;;;;;;;2.30;2.10;;;0.20;99.90;;;;;;5079554;28;20288;-88
2021/01/15 02:05:43;;;;;;;1.60;1.50;;;0.20;99.90;;;;;;5076090;28;20206;-90
2021/01/15 02:08:09;;;;;;;1.67;1.55;;;0.20;99.90;;;;;;5075672;28;20744;-88
2021/01/15 02:10:42;;;;;;;5.47;2.80;;;0.20;99.90;;;;;;5075312;28;20197;-88
2021/01/15 02:13:16;;;;;;;3.35;1.75;;;0.20;99.90;;;;;;5075552;28;20237;-88
2021/01/15 02:15:49;;;;;;;1.90;1.80;;;0.30;99.90;;;;;;5072818;28;20241;-89
2021/01/15 02:18:24;;;;;;;3.40;1.80;;;0.30;99.90;;;;;;5077352;28;20241;-86
2021/01/15 02:21:13;;;;;;;2.50;2.30;;;0.30;99.90;;;;;;5092150;28;20205;-86
2021/01/15 02:23:42;;;;;;;1.77;1.67;;;0.40;99.90;;;;;;5096062;28;20255;-87
2021/01/15 02:26:46;;;;;;;2.60;2.03;;;0.40;99.90;;;;;;5096277;28;20454;-88
2021/01/15 02:29:17;;;;;;;3.50;2.10;;;0.40;99.90;;;;;;5096627;28;20278;-87
2021/01/15 02:32:27;;;;;;;2.05;1.63;;;0.40;99.90;;;;;;5093952;28;20193;-90
2021/01/15 02:35:06;;;;;;;1.80;1.60;;;0.30;99.90;;;;;;5093139;28;20575;-84
2021/01/15 02:37:45;;;;;;;1.67;1.52;;;0.40;99.90;;;;;;5090391;28;20288;-90
2021/01/15 02:40:17;;;;;;;2.42;2.22;;;0.30;99.90;;;;;;5089524;28;20205;-91
2021/01/15 02:42:46;;;;;;;1.95;1.58;;;0.30;99.90;;;;;;5076564;28;20297;-88
2021/01/15 02:45:18;;;;;;;1.65;1.55;;;0.20;99.90;;;;;;5076447;28;20575;-89
2021/01/15 02:47:51;;;;;;;4.75;1.70;;;0.10;99.90;;;;;;5075552;28;20317;-90
2021/01/15 02:50:20;;;;;;;4.38;2.42;;;0.00;99.90;;;;;;5075797;28;20252;-87
2021/01/15 02:52:47;;;;;;;1.88;1.45;;;0.00;99.90;;;;;;5075513;28;20256;-89
2021/01/15 02:55:14;;;;;;;2.95;1.70;;;-0.10;99.90;;;;;;5075953;28;20224;-88
2021/01/15 02:57:41;;;;;;;2.70;2.40;;;-0.10;99.90;;;;;;5074504;28;20250;-90
2021/01/15 03:00:10;;;;;;;2.92;1.70;;;-0.10;99.90;;;;;;5075701;28;20606;-90
2021/01/15 03:02:50;;;;;;;3.33;2.67;;;-0.20;99.90;;;;;;5083835;28;20275;-88
2021/01/15 03:05:20;;;;;;;4.35;2.30;;;-0.10;99.90;;;;;;5094395;28;20296;-89
2021/01/15 03:07:49;;;;;;;7.78;3.70;;;0.00;99.90;;;;;;5093982;28;20236;-85
2021/01/15 03:10:24;;;;;;;6.65;3.05;;;-0.10;99.90;;;;;;5094333;28;20201;-89
2021/01/15 03:12:52;;;;;;;3.63;2.92;;;-0.20;99.90;;;;;;5083541;28;20209;-84
2021/01/15 03:15:20;;;;;;;9.05;4.88;;;-0.20;99.90;;;;;;5073010;28;20783;-83
2021/01/15 03:17:51;;;;;;;4.70;4.03;;;-0.30;99.90;;;;;;5073280;28;20240;-86
2021/01/15 03:20:19;;;;;;;5.55;2.90;;;-0.30;99.90;;;;;;5073847;28;20237;-84
2021/01/15 03:22:45;;;;;;;2.25;2.05;;;-0.30;99.90;;;;;;5073647;28;20278;-85
2021/01/15 03:25:14;;;;;;;3.85;2.22;;;-0.30;99.90;;;;;;5074161;28;20293;-84
2021/01/15 03:27:48;;;;;;;5.43;2.65;;;-0.40;99.90;;;;;;5073500;28;20744;-89
2021/01/15 03:30:17;;;;;;;4.72;2.53;;;-0.30;99.90;;;;;;5074378;28;20208;-87
2021/01/15 03:32:44;;;;;;;2.00;1.90;;;-0.30;99.90;;;;;;5073518;28;20240;-89
2021/01/15 03:35:22;;;;;;;2.53;1.63;;;-0.30;99.90;;;;;;5074014;28;20206;-88
2021/01/15 03:37:55;;;;;;;2.25;2.08;;;-0.30;99.90;;;;;;5074014;28;20559;-88
2021/01/15 03:40:22;;;;;;;2.28;2.08;;;-0.30;99.90;;;;;;5074302;28;20238;-89
2021/01/15 03:42:48;;;;;;;3.20;2.35;;;-0.20;99.90;;;;;;5073945;28;20205;-88
2021/01/15 03:45:15;;;;;;;2.03;1.92;;;-0.20;99.90;;;;;;5074403;28;20263;-89
2021/01/15 03:47:42;;;;;;;2.45;2.22;;;-0.30;99.90;;;;;;5076351;28;20310;-90
2021/01/15 03:50:09;;;;;;;2.80;2.40;;;-0.30;99.90;;;;;;5076479;28;20233;-91
2021/01/15 03:52:36;;;;;;;7.55;3.20;;;-0.30;99.90;;;;;;5094003;28;20637;-91
2021/01/15 03:55:03;;;;;;;5.65;2.80;;;-0.40;99.90;;;;;;5094148;28;20244;-91
2021/01/15 03:57:30;;;;;;;2.90;2.63;;;-0.30;99.90;;;;;;5093794;28;20205;-90
2021/01/15 03:59:56;;;;;;;3.42;3.13;;;-0.30;99.90;;;;;;5093802;28;20309;-87
2021/01/15 04:02:23;;;;;;;5.60;2.10;;;-0.30;99.90;;;;;;5092613;28;20288;-91
2021/01/15 04:04:49;;;;;;;5.95;2.85;;;-0.40;99.90;;;;;;5097634;28;20216;-92
2021/01/15 04:07:17;;;;;;;4.18;2.60;;;-0.40;99.90;;;;;;5098351;28;20270;-87
2021/01/15 04:09:44;;;;;;;5.72;3.13;;;-0.40;99.90;;;;;;5098825;28;20205;-92
2021/01/15 04:12:12;;;;;;;2.65;2.45;;;-0.50;99.90;;;;;;5097929;28;20755;-89
2021/01/15 04:14:41;;;;;;;5.25;2.53;;;-0.40;99.90;;;;;;5098302;28;20254;-90
2021/01/15 04:17:08;;;;;;;3.25;2.40;;;-0.40;99.90;;;;;;5098039;28;20695;-89
2021/01/15 04:19:34;;;;;;;4.65;3.10;;;-0.40;99.90;;;;;;5098396;28;20258;-93
2021/01/15 04:22:01;;;;;;;4.20;3.80;;;-0.40;99.90;;;;;;5098421;28;20227;-91
2021/01/15 04:24:27;;;;;;;4.45;2.78;;;-0.40;99.90;;;;;;5099250;28;20746;-92
2021/01/15 04:26:55;;;;;;;3.63;2.70;;;-0.40;99.90;;;;;;5097336;28;20710;-90
2021/01/15 04:29:22;;;;;;;3.35;2.95;;;-0.30;99.90;;;;;;5098604;28;20608;-87
2021/01/15 04:31:49;;;;;;;4.20;2.50;;;-0.30;99.90;;;;;;5097205;28;20716;-87
2021/01/15 04:34:16;;;;;;;5.47;2.70;;;-0.40;99.90;;;;;;5097872;28;20717;-91
2021/01/15 04:36:42;;;;;;;3.38;2.25;;;-0.50;99.90;;;;;;5097394;28;20213;-90
2021/01/15 04:39:09;;;;;;;5.53;3.10;;;-0.60;99.90;;;;;;5098269;28;20622;-90
2021/01/15 04:41:36;;;;;;;5.22;3.70;;;-0.60;99.90;;;;;;5097774;28;20708;-91
2021/01/15 04:44:04;;;;;;;3.80;2.90;;;-0.60;99.90;;;;;;5097616;28;20291;-85
2021/01/15 04:46:31;;;;;;;5.80;2.83;;;-0.70;99.90;;;;;;5096156;28;20320;-91
2021/01/15 04:48:58;;;;;;;6.40;3.40;;;-0.60;99.90;;;;;;5096932;28;20366;-87
2021/01/15 04:51:27;;;;;;;6.05;3.33;;;-0.60;99.90;;;;;;5097215;28;20270;-90
2021/01/15 04:54:00;;;;;;;4.95;2.78;;;-0.60;99.90;;;;;;5099554;27;20346;-89
2021/01/15 04:56:35;;;;;;;4.72;3.20;;;-0.70;99.90;;;;;;5106369;28;20224;-91
2021/01/15 04:59:04;;;;;;;4.13;3.00;;;-0.80;99.90;;;;;;5100766;28;20246;-90
2021/01/15 05:01:41;;;;;;;3.10;2.83;;;-0.70;99.90;;;;;;5098584;28;20641;-91
2021/01/15 05:04:09;;;;;;;4.38;3.17;;;-0.80;99.90;;;;;;5099115;28;20296;-91
2021/01/15 05:06:45;;;;;;;5.00;3.20;;;-0.90;99.90;;;;;;5096969;28;20592;-92
2021/01/15 05:09:13;;;;;;;9.52;5.20;;;-1.00;99.90;;;;;;5102592;28;20197;-91
2021/01/15 05:11:40;;;;;;;4.13;3.72;;;-1.10;99.90;;;;;;5105401;28;20236;-88
2021/01/15 05:14:11;;;;;;;7.95;3.20;;;-1.20;99.90;;;;;;5106985;28;20228;-89
2021/01/15 05:16:40;;;;;;;3.63;2.60;;;-1.20;99.90;;;;;;5098960;28;20309;-91
2021/01/15 05:19:07;;;;;;;5.30;3.38;;;-1.20;99.90;;;;;;5102638;27;20275;-89
2021/01/15 05:21:35;;;;;;;7.20;4.18;;;-1.10;99.90;;;;;;5096855;28;20669;-91
2021/01/15 05:24:02;;;;;;;3.47;3.10;;;-1.10;99.90;;;;;;5097946;28;20288;-92
2021/01/15 05:26:29;;;;;;;4.57;3.10;;;-1.10;99.90;;;;;;5097782;28;20221;-90
2021/01/15 05:28:55;;;;;;;4.80;3.28;;;-1.10;99.90;;;;;;5096624;28;20316;-91
2021/01/15 05:31:23;;;;;;;5.18;3.20;;;-1.10;99.90;;;;;;5094918;28;20238;-87
2021/01/15 05:34:06;;;;;;;5.45;3.35;;;-1.10;99.90;;;;;;5096064;28;20240;-91
2021/01/15 05:36:34;;;;;;;4.15;3.15;;;-1.10;99.90;;;;;;5096507;28;20258;-89
2021/01/15 05:39:16;;;;;;;4.88;3.33;;;-1.20;99.90;;;;;;5096555;28;20656;-92
2021/01/15 05:41:43;;;;;;;4.93;3.30;;;-1.20;99.90;;;;;;5095423;28;20215;-90
2021/01/15 05:44:11;;;;;;;5.13;4.20;;;-1.30;99.90;;;;;;5096039;28;20735;-89
2021/01/15 05:46:47;;;;;;;11.50;4.10;;;-1.40;99.90;;;;;;5095247;28;20316;-88
2021/01/15 05:49:13;;;;;;;21.30;10.25;;;-1.40;99.90;;;;;;5095915;28;20207;-88
2021/01/15 05:51:40;;;;;;;14.20;8.40;;;-1.30;99.90;;;;;;5096421;28;20735;-91
2021/01/15 05:54:08;;;;;;;11.77;6.20;;;-1.30;99.90;;;;;;5098375;27;20231;-88
2021/01/15 05:56:42;;;;;;;8.45;5.82;;;-1.20;99.90;;;;;;5095818;28;20205;-87
2021/01/15 05:59:10;;;;;;;8.07;5.10;;;-1.30;99.90;;;;;;5096690;28;20668;-94
2021/01/15 06:01:51;;;;;;;5.78;3.72;;;-1.40;99.90;;;;;;5096941;28;20289;-90
2021/01/15 06:04:20;;;;;;;4.30;3.38;;;-1.40;99.90;;;;;;5099143;28;20232;-90
2021/01/15 06:06:48;;;;;;;6.20;3.60;;;-1.40;99.90;;;;;;5098378;28;20260;-87
2021/01/15 06:09:20;;;;;;;8.55;3.65;;;-1.30;99.90;;;;;;5100477;28;20205;-91
2021/01/15 06:11:51;;;;;;;7.38;4.07;;;-1.30;99.90;;;;;;5102741;28;20208;-93
2021/01/15 06:14:22;;;;;;;6.18;4.65;;;-1.30;99.90;;;;;;5085413;28;20285;-88
2021/01/15 06:17:01;;;;;;;8.80;4.75;;;-1.30;99.90;;;;;;5078819;28;20205;-87
2021/01/15 06:19:43;;;;;;;4.85;4.22;;;-1.30;99.90;;;;;;5075587;28;20355;-88
2021/01/15 06:22:26;;;;;;;8.13;5.10;;;-1.30;99.90;;;;;;5075016;28;20564;-90
2021/01/15 06:25:07;;;;;;;5.63;4.15;;;-1.30;99.90;;;;;;5075214;28;20772;-89
2021/01/15 06:27:35;;;;;;;5.40;3.97;;;-1.30;99.90;;;;;;5071719;28;20273;-88
2021/01/15 06:30:06;;;;;;;6.65;4.25;;;-1.30;99.90;;;;;;5077970;28;20236;-89
2021/01/15 06:32:33;;;;;;;7.72;4.78;;;-1.40;99.90;;;;;;5093428;28;20251;-88
2021/01/15 06:35:00;;;;;;;6.97;4.53;;;-1.50;99.90;;;;;;5098209;27;20292;-87
2021/01/15 06:37:26;;;;;;;7.97;4.30;;;-1.50;99.90;;;;;;5095134;28;20292;-90
2021/01/15 06:40:09;;;;;;;6.05;4.07;;;-1.50;99.90;;;;;;5096758;28;20300;-88
2021/01/15 06:42:47;;;;;;;9.48;4.95;;;-1.50;99.90;;;;;;5095492;28;20240;-90
2021/01/15 06:45:15;;;;;;;6.43;5.15;;;-1.50;99.90;;;;;;5098161;27;20605;-91
2021/01/15 06:47:46;;;;;;;8.65;5.10;;;-1.50;99.90;;;;;;5096406;27;20319;-91
2021/01/15 06:50:16;;;;;;;10.77;4.80;;;-1.60;99.90;;;;;;5099614;28;20600;-88
2021/01/15 06:52:47;;;;;;;8.35;5.22;;;-1.60;99.90;;;;;;5099573;28;20264;-89
2021/01/15 06:55:16;;;;;;;10.52;5.30;;;-1.60;99.90;;;;;;5087619;28;20201;-88
2021/01/15 06:57:47;;;;;;;10.55;5.47;;;-1.40;99.90;;;;;;5085963;28;20205;-91
2021/01/15 07:00:20;;;;;;;18.13;11.43;;;-1.40;99.90;;;;;;5081809;28;20275;-89
2021/01/15 07:03:27;;;;;;;9.95;5.95;;;-1.40;99.90;;;;;;5076078;28;20208;-92
2021/01/15 07:05:54;;;;;;;7.15;4.45;;;-1.40;99.90;;;;;;5079937;28;20205;-93
2021/01/15 07:08:29;;;;;;;7.18;5.15;;;-1.30;99.90;;;;;;5095998;28;20229;-91
2021/01/15 07:10:56;;;;;;;10.48;5.68;;;-1.20;99.90;;;;;;5098392;28;20185;-89
2021/01/15 07:13:29;;;;;;;9.40;4.95;;;-1.30;99.90;;;;;;5097648;28;20253;-88
2021/01/15 07:15:55;;;;;;;10.77;6.47;;;-1.30;99.90;;;;;;5095844;28;20197;-86
2021/01/15 07:18:32;;;;;;;9.38;4.70;;;-1.30;99.90;;;;;;5098957;28;20206;-91
2021/01/15 07:21:10;;;;;;;6.78;5.25;;;-1.30;99.90;;;;;;5098679;28;20201;-91
2021/01/15 07:23:51;;;;;;;10.50;5.68;;;-1.20;99.90;;;;;;5095952;28;20185;-87
2021/01/15 07:26:18;;;;;;;8.52;5.15;;;-1.20;99.90;;;;;;5094667;28;20194;-88
2021/01/15 07:28:46;;;;;;;12.15;5.15;;;-1.30;99.90;;;;;;5077194;28;20265;-90
2021/01/15 07:31:22;;;;;;;8.75;4.85;;;-1.30;99.90;;;;;;5083788;28;20619;-91
2021/01/15 07:33:55;;;;;;;8.55;5.63;;;-1.30;99.90;;;;;;5094043;28;20204;-84
2021/01/15 07:36:32;;;;;;;12.85;6.50;;;-1.30;99.90;;;;;;5097387;28;20255;-88
2021/01/15 07:39:12;;;;;;;9.30;6.60;;;-1.30;99.90;;;;;;5094831;28;20253;-90
2021/01/15 07:41:43;;;;;;;12.63;5.93;;;-1.30;99.90;;;;;;5094660;28;20240;-90
2021/01/15 07:44:38;;;;;;;10.23;6.22;;;-1.30;99.90;;;;;;5094889;28;20680;-86
2021/01/15 07:47:14;;;;;;;8.75;5.97;;;-1.30;99.90;;;;;;5094132;28;20265;-88
2021/01/15 07:49:45;;;;;;;8.32;6.20;;;-1.20;99.90;;;;;;5096789;28;20274;-90
2021/01/15 07:52:13;;;;;;;10.82;6.60;;;-1.20;99.90;;;;;;5095381;28;20699;-90
2021/01/15 07:55:00;;;;;;;9.13;5.97;;;-1.20;99.90;;;;;;5104964;28;20208;-91
2021/01/15 07:57:27;;;;;;;8.93;5.80;;;-1.10;99.90;;;;;;5099387;28;20338;-92
2021/01/15 07:59:53;;;;;;;9.35;6.78;;;-1.10;99.90;;;;;;5103045;28;20660;-90
2021/01/15 08:02:21;;;;;;;10.45;5.93;;;-1.10;99.90;;;;;;5102574;28;20240;-90
2021/01/15 08:04:48;;;;;;;8.48;5.47;;;-1.10;99.90;;;;;;5081377;28;20307;-92
2021/01/15 08:07:24;;;;;;;7.75;4.32;;;-1.10;99.90;;;;;;5081814;28;20271;-92
2021/01/15 08:09:50;;;;;;;14.70;5.55;;;-1.00;99.90;;;;;;5076692;28;20268;-91
2021/01/15 08:12:16;;;;;;;6.75;5.20;;;-1.00;99.90;;;;;;5076543;28;20263;-92
2021/01/15 08:14:43;;;;;;;10.70;6.05;;;-0.90;99.90;;;;;;5075794;28;20319;-88
2021/01/15 08:17:11;;;;;;;11.48;6.30;;;-0.90;99.90;;;;;;5074657;28;20644;-92
2021/01/15 08:19:38;;;;;;;9.80;5.88;;;-0.80;99.90;;;;;;5073871;28;20193;-90
2021/01/15 08:22:08;;;;;;;12.60;7.25;;;-0.80;99.90;;;;;;5073579;28;20212;-91
2021/01/15 08:24:44;;;;;;;13.00;6.75;;;-0.80;99.90;;;;;;5073658;28;20241;-88
2021/01/15 08:27:17;;;;;;;58.28;27.20;;;-0.80;99.90;;;;;;5073431;28;20290;-91
2021/01/15 08:29:44;;;;;;;25.55;13.93;;;-0.70;99.90;;;;;;5084040;28;20208;-92
2021/01/15 08:32:10;;;;;;;74.68;34.40;;;-0.80;99.90;;;;;;5059865;22;20231;-94
2021/01/15 08:34:40;;;;;;;25.55;11.38;;;-0.80;99.90;;;;;;5037786;28;20209;-91
2021/01/15 08:37:10;;;;;;;8.27;6.03;;;-0.80;99.90;;;;;;5033757;28;20578;-89
2021/01/15 08:39:44;;;;;;;15.55;9.10;;;-0.90;99.90;;;;;;5034257;28;20298;-90
2021/01/15 08:42:11;;;;;;;40.47;19.65;;;-0.90;99.90;;;;;;5032623;28;20290;-92
2021/01/15 08:44:39;;;;;;;18.23;11.38;;;-0.90;99.90;;;;;;5033599;28;20231;-91
2021/01/15 08:47:10;;;;;;;21.63;11.23;;;-0.90;99.90;;;;;;5033571;28;20235;-91
2021/01/15 08:49:36;;;;;;;50.80;24.73;;;-0.80;99.90;;;;;;5034892;28;20207;-88
2021/01/15 08:52:04;;;;;;;11.68;6.00;;;-0.80;99.90;;;;;;5038340;28;20223;-90
2021/01/15 08:54:33;;;;;;;180.60;73.00;;;-0.80;99.90;;;;;;5037106;28;20292;-90
2021/01/15 08:57:02;;;;;;;43.05;19.20;;;-0.80;99.90;;;;;;5036953;28;20202;-88
2021/01/15 08:59:30;;;;;;;19.60;8.43;;;-0.80;99.90;;;;;;5036305;28;20203;-90
2021/01/15 09:01:57;;;;;;;29.80;12.48;;;-0.70;99.90;;;;;;5034687;28;20722;-88
2021/01/15 09:04:25;;;;;;;42.15;20.05;;;-0.70;99.90;;;;;;5036673;28;20738;-93
2021/01/15 09:06:56;;;;;;;20.08;10.25;;;-0.70;99.90;;;;;;5038719;28;20262;-90
2021/01/15 09:09:24;;;;;;;19.35;8.75;;;-0.70;99.90;;;;;;5036991;28;20203;-91
2021/01/15 09:11:53;;;;;;;19.55;12.38;;;-0.60;99.90;;;;;;5036968;28;20713;-90
2021/01/15 09:14:21;;;;;;;9.40;5.75;;;-0.50;99.90;;;;;;5037150;28;20286;-91
2021/01/15 09:16:49;;;;;;;11.10;7.78;;;-0.40;99.90;;;;;;5039948;28;20732;-89
2021/01/15 09:19:19;;;;;;;12.32;7.30;;;-0.30;99.90;;;;;;5036383;28;20289;-87
2021/01/15 09:21:46;;;;;;;10.57;6.88;;;-0.20;99.90;;;;;;5037142;28;20229;-90
2021/01/15 09:24:13;;;;;;;7.57;5.05;;;-0.20;99.90;;;;;;5036591;28;20203;-90
2021/01/15 09:26:40;;;;;;;9.60;5.90;;;-0.10;99.90;;;;;;5037075;28;20325;-90
2021/01/15 09:29:09;;;;;;;11.80;6.63;;;0.00;99.90;;;;;;5039044;28;20269;-90
2021/01/15 09:31:37;;;;;;;14.50;6.57;;;0.10;99.90;;;;;;5034813;28;20231;-85
2021/01/15 09:34:03;;;;;;;10.27;6.53;;;0.30;99.90;;;;;;5035163;28;20298;-89
2021/01/15 09:36:30;;;;;;;9.57;6.65;;;0.30;99.90;;;;;;5034988;28;20230;-87
2021/01/15 09:38:58;;;;;;;7.50;6.20;;;0.30;99.90;;;;;;5035754;28;20249;-88
2021/01/15 09:41:25;;;;;;;11.38;5.80;;;0.40;99.90;;;;;;5035872;28;20206;-87
2021/01/15 09:43:53;;;;;;;8.50;6.43;;;0.40;99.90;;;;;;5035605;28;20814;-91
2021/01/15 09:46:26;;;;;;;9.85;6.43;;;0.40;99.90;;;;;;5033764;28;20207;-92
2021/01/15 09:48:54;;;;;;;14.48;7.50;;;0.50;99.90;;;;;;5035525;28;20203;-93
2021/01/15 09:51:25;;;;;;;10.13;5.55;;;0.60;99.90;;;;;;5037872;28;20234;-90
2021/01/15 09:53:51;;;;;;;22.90;12.23;;;0.60;99.90;;;;;;5036294;28;20294;-89
2021/01/15 09:56:22;;;;;;;12.02;6.93;;;0.70;99.90;;;;;;5037133;28;20214;-86
2021/01/15 09:58:49;;;;;;;15.00;6.95;;;0.70;99.90;;;;;;5036988;28;20285;-87
2021/01/15 10:01:15;;;;;;;13.40;7.60;;;0.80;99.90;;;;;;5030132;28;20290;-93
2021/01/15 10:03:42;;;;;;;10.65;6.10;;;0.90;99.90;;;;;;5018866;28;20235;-92
2021/01/15 10:06:13;;;;;;;9.43;5.40;;;0.90;99.90;;;;;;5019171;28;20702;-93
2021/01/15 10:08:39;;;;;;;7.63;6.03;;;0.90;99.90;;;;;;5015834;28;20326;-90
2021/01/15 10:11:06;;;;;;;13.00;7.32;;;0.90;99.90;;;;;;5018295;28;20298;-91
2021/01/15 10:13:32;;;;;;;16.35;8.60;;;1.00;99.90;;;;;;5016542;28;20659;-93
2021/01/15 10:16:04;;;;;;;12.23;8.40;;;1.10;99.90;;;;;;5024312;28;20722;-91
2021/01/15 10:18:33;;;;;;;6.82;6.22;;;1.10;99.90;;;;;;5036877;28;20203;-92
2021/01/15 10:21:00;;;;;;;15.80;8.80;;;1.20;99.90;;;;;;5035709;28;20225;-93
2021/01/15 10:23:27;;;;;;;10.10;7.20;;;1.20;99.90;;;;;;5038666;28;20260;-93
2021/01/15 10:25:53;;;;;;;9.88;6.95;;;1.20;99.90;;;;;;5038885;28;20301;-91
2021/01/15 10:28:19;;;;;;;9.75;4.63;;;1.30;99.90;;;;;;5038400;28;20270;-93
2021/01/15 10:30:47;;;;;;;11.23;7.22;;;1.30;99.90;;;;;;5036386;28;20322;-93
2021/01/15 10:33:13;;;;;;;9.85;5.40;;;1.20;99.90;;;;;;5038942;28;20207;-93
2021/01/15 10:35:41;;;;;;;8.93;6.22;;;1.40;99.90;;;;;;5037809;28;20272;-91
2021/01/15 10:38:09;;;;;;;8.98;5.10;;;1.50;99.90;;;;;;5039218;28;20211;-90
2021/01/15 10:40:35;;;;;;;9.52;6.63;;;1.60;99.90;;;;;;5039971;28;20725;-92
2021/01/15 10:43:01;;;;;;;7.05;5.65;;;1.60;99.90;;;;;;5039123;28;20256;-92
2021/01/15 10:45:28;;;;;;;5.70;4.55;;;1.60;99.90;;;;;;5036065;28;20246;-94
2021/01/15 10:47:54;;;;;;;12.85;6.63;;;1.60;99.90;;;;;;5043148;28;20231;-88
2021/01/15 10:50:22;;;;;;;8.05;6.25;;;1.40;99.90;;;;;;5055215;28;20218;-90
2021/01/15 10:52:51;;;;;;;9.23;6.28;;;1.60;99.90;;;;;;5039812;28;20225;-93
2021/01/15 10:55:19;;;;;;;9.23;5.75;;;1.60;99.90;;;;;;5018509;28;20217;-91
2021/01/15 10:57:46;;;;;;;9.00;6.35;;;1.70;99.90;;;;;;5037037;28;20289;-91
2021/01/15 11:00:14;;;;;;;10.30;6.32;;;1.80;99.90;;;;;;5037013;28;20234;-93
2021/01/15 11:02:43;;;;;;;9.02;5.28;;;1.70;99.90;;;;;;5038202;28;20234;-88
2021/01/15 11:05:10;;;;;;;7.97;5.70;;;1.90;99.90;;;;;;5037230;28;20198;-92
2021/01/15 11:07:36;;;;;;;9.88;5.90;;;2.90;99.90;;;;;;5001365;28;20314;-89
2021/01/15 11:10:04;;;;;;;8.90;6.35;;;3.80;97.80;;;;;;5019012;28;20298;-93
2021/01/15 11:12:32;;;;;;;5.63;4.78;;;4.30;96.70;;;;;;5019701;28;20227;-94
2021/01/15 11:14:58;;;;;;;9.98;5.20;;;4.30;95.60;;;;;;5016885;28;20250;-92
2021/01/15 11:17:25;;;;;;;5.90;4.65;;;3.60;96.40;;;;;;5015642;28;20267;-92
2021/01/15 11:19:51;;;;;;;7.95;5.05;;;2.90;97.70;;;;;;5023328;28;20231;-87
2021/01/15 11:22:17;;;;;;;9.60;4.72;;;2.60;98.60;;;;;;5023421;28;20235;-86
2021/01/15 11:24:44;;;;;;;8.98;5.65;;;2.50;99.80;;;;;;5036111;28;20192;-90
2021/01/15 11:27:10;;;;;;;7.22;5.47;;;2.40;99.50;;;;;;5024368;28;20686;-93
2021/01/15 11:29:37;;;;;;;5.20;4.57;;;2.30;99.80;;;;;;5021804;28;20732;-89
2021/01/15 11:32:05;;;;;;;4.57;4.13;;;2.30;99.90;;;;;;5033655;28;20226;-84
2021/01/15 11:34:31;;;;;;;7.07;4.97;;;2.30;99.90;;;;;;5035858;28;20210;-88
2021/01/15 11:36:57;;;;;;;12.30;8.60;;;2.30;99.80;;;;;;5026813;28;20238;-87
2021/01/15 11:39:24;;;;;;;14.43;8.10;;;2.40;99.90;;;;;;5017857;28;20246;-92
2021/01/15 11:41:52;;;;;;;9.45;6.78;;;2.40;99.90;;;;;;5024035;28;20227;-92
2021/01/15 11:44:18;;;;;;;9.23;6.90;;;2.40;99.90;;;;;;5016712;28;20568;-92
2021/01/15 11:46:46;;;;;;;14.25;8.50;;;2.40;99.90;;;;;;5040117;28;20257;-89
2021/01/15 11:49:13;;;;;;;9.80;7.35;;;2.30;99.90;;;;;;5041828;28;20550;-88
2021/01/15 11:51:39;;;;;;;10.85;7.75;;;2.40;99.90;;;;;;5045009;28;20203;-85
2021/01/15 11:54:12;;;;;;;9.73;6.43;;;2.40;99.90;;;;;;5001366;28;20238;-88
2021/01/15 11:56:39;;;;;;;7.53;6.72;;;2.50;99.90;;;;;;5036088;28;20565;-93
2021/01/15 11:59:06;;;;;;;13.57;7.10;;;2.40;99.90;;;;;;5035080;28;20203;-91
2021/01/15 12:01:32;;;;;;;8.75;7.00;;;2.40;99.90;;;;;;5036002;28;20230;-90
2021/01/15 12:04:00;;;;;;;9.48;6.80;;;2.40;99.90;;;;;;5036509;28;20198;-93
2021/01/15 12:06:26;;;;;;;7.15;6.45;;;2.40;99.90;;;;;;5015622;28;20299;-91
2021/01/15 12:08:53;;;;;;;8.00;6.57;;;2.40;99.90;;;;;;5014590;28;20873;-91
2021/01/15 12:11:19;;;;;;;9.57;6.30;;;2.40;99.90;;;;;;5015444;28;20294;-90
2021/01/15 12:13:46;;;;;;;10.88;7.93;;;2.30;99.90;;;;;;5013368;28;20215;-89
2021/01/15 12:16:14;;;;;;;11.02;6.45;;;2.30;99.90;;;;;;5015201;28;20285;-89
2021/01/15 12:18:40;;;;;;;11.50;6.63;;;2.30;99.90;;;;;;5033673;28;20213;-89
2021/01/15 12:21:07;;;;;;;11.25;7.05;;;2.30;99.90;;;;;;5033073;28;20718;-90
2021/01/15 12:23:34;;;;;;;12.55;6.95;;;2.40;99.90;;;;;;5036771;28;20345;-92
2021/01/15 12:26:02;;;;;;;8.50;6.75;;;2.30;99.90;;;;;;5038453;28;20218;-91
2021/01/15 12:28:29;;;;;;;10.23;6.90;;;2.40;99.90;;;;;;5040718;28;20235;-88
2021/01/15 12:30:55;;;;;;;11.85;7.18;;;2.40;99.90;;;;;;5036372;28;20322;-90
2021/01/15 12:33:22;;;;;;;9.02;5.47;;;2.40;99.90;;;;;;5040155;28;20238;-89
2021/01/15 12:35:50;;;;;;;10.05;6.57;;;2.50;99.90;;;;;;5039223;28;20203;-84
2021/01/15 12:38:21;;;;;;;9.15;6.72;;;2.40;99.90;;;;;;5037216;28;20557;-89
2021/01/15 12:40:48;;;;;;;9.35;6.22;;;2.40;99.90;;;;;;5036834;28;20301;-87
2021/01/15 12:43:16;;;;;;;11.43;7.20;;;2.40;99.90;;;;;;5038338;28;20312;-87
2021/01/15 12:45:44;;;;;;;9.10;7.22;;;2.50;99.90;;;;;;5036624;28;20617;-91
2021/01/15 12:48:12;;;;;;;10.70;8.15;;;2.50;99.90;;;;;;5036791;28;20235;-88
2021/01/15 12:50:39;;;;;;;10.90;7.88;;;2.50;99.90;;;;;;5039127;28;20241;-89
2021/01/15 12:53:06;;;;;;;8.10;5.88;;;2.60;99.90;;;;;;5036150;28;20222;-92
2021/01/15 12:55:33;;;;;;;11.77;5.80;;;2.50;99.90;;;;;;5036630;28;20239;-89
2021/01/15 12:58:01;;;;;;;12.63;7.70;;;2.50;99.90;;;;;;5037520;28;20242;-88